Time,TemperatureF,DewpointF,PressureIn,WindDirection,WindDirectionDegrees,WindSpeedMPH,WindSpeedGustMPH,Humidity,HourlyPrecipIn,Conditions,Clouds,dailyrainin,SoftwareType,DateUTC
2014-01-10 00:05:00,8.8,5.7,30.50,NNW,337,0.0,-999.0,87,-99.99,,,0.00,Acu-Link.com,2014-01-10 05:05:00,
2014-01-10 00:20:00,8.4,5.3,30.51,ESE,112,0.0,-999.0,87,-99.99,,,0.00,Acu-Link.com,2014-01-10 05:20:00,
2014-01-10 00:35:00,7.5,4.0,30.50,WNW,292,0.0,-999.0,85,-99.99,,,0.00,Acu-Link.com,2014-01-10 05:35:00,
2014-01-10 00:50:00,7.2,4.2,30.51,SE,135,0.0,-999.0,87,-99.99,,,0.00,Acu-Link.com,2014-01-10 05:50:00,
2014-01-10 01:05:00,7.0,4.0,30.51,NW,315,0.0,-999.0,87,-99.99,,,0.00,Acu-Link.com,2014-01-10 06:05:00,
2014-01-10 01:20:00,6.8,3.5,30.52,SE,135,0.0,-999.0,86,-99.99,,,0.00,Acu-Link.com,2014-01-10 06:20:00,
2014-01-10 01:35:00,6.6,3.3,30.52,SE,135,0.0,-999.0,86,-99.99,,,0.00,Acu-Link.com,2014-01-10 06:35:00,
2014-01-10 01:50:00,7.0,4.2,30.51,ENE,67,0.0,-999.0,88,-99.99,,,0.00,Acu-Link.com,2014-01-10 06:50:00,
2014-01-10 02:05:00,7.0,4.0,30.51,East,90,0.0,-999.0,87,-99.99,,,0.00,Acu-Link.com,2014-01-10 07:05:00,
2014-01-10 02:21:00,7.0,4.0,30.51,ESE,112,0.0,-999.0,87,-99.99,,,0.00,Acu-Link.com,2014-01-10 07:21:00,
2014-01-10 02:36:00,7.3,4.3,30.51,NNW,337,0.0,-999.0,87,-99.99,,,0.00,Acu-Link.com,2014-01-10 07:36:00,
2014-01-10 02:51:00,8.1,5.3,30.50,NNE,22,0.0,-999.0,88,-99.99,,,0.00,Acu-Link.com,2014-01-10 07:51:00,
2014-01-10 03:06:00,9.0,6.2,30.51,SW,225,0.0,-999.0,88,-99.99,,,0.00,Acu-Link.com,2014-01-10 08:06:00,
2014-01-10 03:21:00,9.0,6.2,30.50,SE,135,0.0,-999.0,88,-99.99,,,0.00,Acu-Link.com,2014-01-10 08:21:00,
2014-01-10 03:36:00,9.7,6.9,30.51,SW,225,0.0,-999.0,88,-99.99,,,0.00,Acu-Link.com,2014-01-10 08:36:00,
2014-01-10 03:51:00,9.9,7.1,30.50,SSE,157,0.0,-999.0,88,-99.99,,,0.00,Acu-Link.com,2014-01-10 08:51:00,
2014-01-10 04:06:00,10.6,7.8,30.49,SW,225,0.0,-999.0,88,-99.99,,,0.00,Acu-Link.com,2014-01-10 09:06:00,
2014-01-10 04:21:00,11.5,8.6,30.49,NE,45,0.0,-999.0,88,-99.99,,,0.00,Acu-Link.com,2014-01-10 09:21:00,
2014-01-10 04:37:00,12.7,10.1,30.49,NNE,22,0.0,-999.0,89,-99.99,,,0.00,Acu-Link.com,2014-01-10 09:37:00,
2014-01-10 04:52:00,13.6,11.0,30.48,SSW,202,0.0,-999.0,89,-99.99,,,0.00,Acu-Link.com,2014-01-10 09:52:00,
2014-01-10 05:07:00,14.4,11.8,30.48,North,0,0.0,-999.0,89,-99.99,,,0.00,Acu-Link.com,2014-01-10 10:07:00,
2014-01-10 05:22:00,15.3,12.7,30.46,North,0,0.0,-999.0,89,-99.99,,,0.00,Acu-Link.com,2014-01-10 10:22:00,
2014-01-10 05:37:00,15.6,12.9,30.46,East,90,0.0,-999.0,89,-99.99,,,0.00,Acu-Link.com,2014-01-10 10:37:00,
2014-01-10 05:52:00,16.0,13.3,30.44,ESE,112,1.1,-999.0,89,-99.99,,,0.00,Acu-Link.com,2014-01-10 10:52:00,
2014-01-10 06:07:00,16.2,13.0,30.44,NNE,22,0.0,-999.0,87,-99.99,,,0.00,Acu-Link.com,2014-01-10 11:07:00,
2014-01-10 06:22:00,16.5,13.6,30.44,NE,45,0.0,-999.0,88,-99.99,,,0.00,Acu-Link.com,2014-01-10 11:22:00,
2014-01-10 06:37:00,17.1,14.2,30.44,WNW,292,0.0,-999.0,88,-99.99,,,0.00,Acu-Link.com,2014-01-10 11:37:00,
2014-01-10 06:53:00,17.4,14.5,30.43,WNW,292,0.0,-999.0,88,-99.99,,,0.00,Acu-Link.com,2014-01-10 11:53:00,
2014-01-10 07:08:00,18.0,15.1,30.43,WNW,292,0.0,-999.0,88,-99.99,,,0.00,Acu-Link.com,2014-01-10 12:08:00,
2014-01-10 07:23:00,18.0,15.3,30.42,NE,45,0.0,-999.0,89,-99.99,,,0.00,Acu-Link.com,2014-01-10 12:23:00,
2014-01-10 07:38:00,18.1,15.4,30.41,North,0,0.0,-999.0,89,-99.99,,,0.00,Acu-Link.com,2014-01-10 12:38:00,
2014-01-10 07:53:00,18.7,16.0,30.41,WNW,292,0.0,-999.0,89,-99.99,,,0.00,Acu-Link.com,2014-01-10 12:53:00,
2014-01-10 08:08:00,19.6,16.9,30.41,NNW,337,0.0,-999.0,89,-99.99,,,0.00,Acu-Link.com,2014-01-10 13:08:00,
2014-01-10 08:23:00,19.9,17.2,30.40,NE,45,0.0,-999.0,89,-99.99,,,0.00,Acu-Link.com,2014-01-10 13:23:00,
2014-01-10 08:38:00,20.8,17.8,30.41,SE,135,0.0,-999.0,88,-99.99,,,0.00,Acu-Link.com,2014-01-10 13:38:00,
2014-01-10 08:53:00,21.2,18.5,30.41,SE,135,0.0,-999.0,89,-99.99,,,0.00,Acu-Link.com,2014-01-10 13:53:00,
2014-01-10 09:09:00,22.1,19.4,30.41,SE,135,0.0,-999.0,89,-99.99,,,0.00,Acu-Link.com,2014-01-10 14:09:00,
2014-01-10 09:24:00,23.7,20.4,30.41,ESE,112,0.0,-999.0,87,-99.99,,,0.00,Acu-Link.com,2014-01-10 14:24:00,
2014-01-10 09:39:00,24.1,21.1,30.39,East,90,2.2,-999.0,88,-99.99,,,0.00,Acu-Link.com,2014-01-10 14:39:00,
2014-01-10 09:54:00,25.2,21.9,30.40,East,90,1.1,-999.0,87,-99.99,,,0.00,Acu-Link.com,2014-01-10 14:54:00,
2014-01-10 10:09:00,26.4,23.1,30.40,East,90,1.1,-999.0,87,-99.99,,,0.00,Acu-Link.com,2014-01-10 15:09:00,
2014-01-10 10:24:00,28.4,24.2,30.39,South,180,2.2,-999.0,84,-99.99,,,0.00,Acu-Link.com,2014-01-10 15:24:00,
2014-01-10 10:39:00,28.2,24.3,30.40,SSW,202,4.2,-999.0,85,-99.99,,,0.00,Acu-Link.com,2014-01-10 15:39:00,
2014-01-10 10:54:00,28.6,25.0,30.37,SE,135,2.7,-999.0,86,-99.99,,,0.00,Acu-Link.com,2014-01-10 15:54:00,
2014-01-10 11:09:00,28.9,25.5,30.37,South,180,2.7,-999.0,87,-99.99,,,0.00,Acu-Link.com,2014-01-10 16:09:00,
2014-01-10 11:25:00,29.8,26.4,30.36,South,180,2.7,-999.0,87,-99.99,,,0.00,Acu-Link.com,2014-01-10 16:25:00,
2014-01-10 11:40:00,30.4,27.0,30.35,SSW,202,3.2,-999.0,87,-99.99,,,0.00,Acu-Link.com,2014-01-10 16:40:00,
2014-01-10 11:55:00,31.1,27.7,30.34,SSW,202,1.1,-999.0,87,-99.99,,,0.00,Acu-Link.com,2014-01-10 16:55:00,
2014-01-10 12:10:00,31.3,27.9,30.33,SSW,202,1.1,-999.0,87,-99.99,,,0.00,Acu-Link.com,2014-01-10 17:10:00,
2014-01-10 12:25:00,31.6,28.2,30.31,West,270,0.0,-999.0,87,-99.99,,,0.00,Acu-Link.com,2014-01-10 17:25:00,
2014-01-10 12:40:00,32.2,28.5,30.31,SSE,157,3.7,-999.0,86,-99.99,,,0.00,Acu-Link.com,2014-01-10 17:40:00,
2014-01-10 12:55:00,32.4,29.0,30.31,SSW,202,0.0,-999.0,87,-99.99,,,0.00,Acu-Link.com,2014-01-10 17:55:00,
2014-01-10 13:10:00,32.5,29.1,30.30,SSW,202,2.2,-999.0,87,-99.99,,,0.00,Acu-Link.com,2014-01-10 18:10:00,
2014-01-10 13:25:00,33.1,30.2,30.30,SSE,157,1.7,-999.0,89,-99.99,,,0.00,Acu-Link.com,2014-01-10 18:25:00,
2014-01-10 13:40:00,33.1,30.5,30.29,SSE,157,1.7,-999.0,90,-99.99,,,0.00,Acu-Link.com,2014-01-10 18:40:00,
2014-01-10 13:56:00,33.6,31.0,30.29,SSE,157,0.0,-999.0,90,-99.99,,,0.00,Acu-Link.com,2014-01-10 18:56:00,
2014-01-10 14:11:00,33.8,31.5,30.28,SSE,157,3.2,-999.0,91,-99.99,,,0.00,Acu-Link.com,2014-01-10 19:11:00,
2014-01-10 14:26:00,35.1,32.5,30.28,NW,315,0.0,-999.0,90,-99.99,,,0.01,Acu-Link.com,2014-01-10 19:26:00,
2014-01-10 14:41:00,35.6,33.0,30.29,WSW,247,1.1,-999.0,90,-99.99,,,0.03,Acu-Link.com,2014-01-10 19:41:00,
2014-01-10 14:56:00,35.1,32.7,30.27,ESE,112,1.1,-999.0,91,-99.99,,,0.04,Acu-Link.com,2014-01-10 19:56:00,
2014-01-10 15:11:00,35.8,33.2,30.27,ESE,112,0.0,-999.0,90,-99.99,,,0.04,Acu-Link.com,2014-01-10 20:11:00,
2014-01-10 15:26:00,35.2,33.1,30.27,ESE,112,0.0,-999.0,92,-99.99,,,0.04,Acu-Link.com,2014-01-10 20:26:00,
2014-01-10 15:42:00,35.4,33.3,30.26,ESE,112,1.1,-999.0,92,-99.99,,,0.04,Acu-Link.com,2014-01-10 20:42:00,
2014-01-10 15:57:00,35.4,33.3,30.26,SE,135,0.0,-999.0,92,-99.99,,,0.05,Acu-Link.com,2014-01-10 20:57:00,
2014-01-10 16:12:00,35.1,33.0,30.26,SSE,157,0.0,-999.0,92,-99.99,,,0.05,Acu-Link.com,2014-01-10 21:12:00,
2014-01-10 16:27:00,34.7,32.9,30.25,SSE,157,2.2,-999.0,93,-99.99,,,0.05,Acu-Link.com,2014-01-10 21:27:00,
2014-01-10 16:42:00,34.3,32.8,30.25,ESE,112,0.0,-999.0,94,-99.99,,,0.05,Acu-Link.com,2014-01-10 21:42:00,
2014-01-10 16:57:00,34.3,33.3,30.25,NE,45,0.0,-999.0,96,-99.99,,,0.05,Acu-Link.com,2014-01-10 21:57:00,
2014-01-10 17:12:00,34.2,33.2,30.26,ESE,112,0.0,-999.0,96,-99.99,,,0.05,Acu-Link.com,2014-01-10 22:12:00,
2014-01-10 17:27:00,34.0,33.0,30.25,SE,135,0.0,-999.0,96,-99.99,,,0.05,Acu-Link.com,2014-01-10 22:27:00,
2014-01-10 17:43:00,34.0,33.0,30.26,ESE,112,0.0,-999.0,96,-99.99,,,0.05,Acu-Link.com,2014-01-10 22:43:00,
2014-01-10 17:58:00,33.8,32.8,30.26,ESE,112,0.0,-999.0,96,-99.99,,,0.05,Acu-Link.com,2014-01-10 22:58:00,
2014-01-10 18:13:00,33.6,32.6,30.25,ESE,112,0.0,-999.0,96,-99.99,,,0.05,Acu-Link.com,2014-01-10 23:13:00,
2014-01-10 18:28:00,33.6,33.1,30.25,ENE,67,0.0,-999.0,98,-99.99,,,0.05,Acu-Link.com,2014-01-10 23:28:00,
2014-01-10 18:43:00,33.6,33.1,30.25,ENE,67,0.0,-999.0,98,-99.99,,,0.05,Acu-Link.com,2014-01-10 23:43:00,
2014-01-10 18:58:00,33.6,33.1,30.25,ENE,67,0.0,-999.0,98,-99.99,,,0.05,Acu-Link.com,2014-01-10 23:58:00,
2014-01-10 19:13:00,33.6,33.3,30.25,ENE,67,0.0,-999.0,99,-99.99,,,0.05,Acu-Link.com,2014-01-11 00:13:00,
2014-01-10 19:28:00,33.4,33.1,30.25,ENE,67,0.0,-999.0,99,-99.99,,,0.05,Acu-Link.com,2014-01-11 00:28:00,
2014-01-10 19:43:00,33.4,33.1,30.24,ENE,67,0.0,-999.0,99,-99.99,,,0.05,Acu-Link.com,2014-01-11 00:43:00,
2014-01-10 19:59:00,33.4,33.1,30.22,East,90,0.0,-999.0,99,-99.99,,,0.05,Acu-Link.com,2014-01-11 00:59:00,
2014-01-10 20:14:00,33.6,33.3,30.23,West,270,0.0,-999.0,99,-99.99,,,0.05,Acu-Link.com,2014-01-11 01:14:00,
2014-01-10 20:29:00,33.6,33.3,30.23,WSW,247,0.0,-999.0,99,-99.99,,,0.05,Acu-Link.com,2014-01-11 01:29:00,
2014-01-10 20:44:00,33.8,33.5,30.23,NNE,22,0.0,-999.0,99,-99.99,,,0.05,Acu-Link.com,2014-01-11 01:44:00,
2014-01-10 20:59:00,34.0,33.7,30.23,ESE,112,0.0,-999.0,99,-99.99,,,0.05,Acu-Link.com,2014-01-11 01:59:00,
2014-01-10 21:14:00,34.0,33.7,30.22,East,90,0.0,-999.0,99,-99.99,,,0.05,Acu-Link.com,2014-01-11 02:14:00,
2014-01-10 21:29:00,33.8,33.5,30.22,East,90,0.0,-999.0,99,-99.99,,,0.05,Acu-Link.com,2014-01-11 02:29:00,
2014-01-10 21:45:00,33.8,33.5,30.20,East,90,0.0,-999.0,99,-99.99,,,0.05,Acu-Link.com,2014-01-11 02:45:00,
2014-01-10 22:00:00,33.8,33.5,30.20,NNE,22,0.0,-999.0,99,-99.99,,,0.05,Acu-Link.com,2014-01-11 03:00:00,
2014-01-10 22:15:00,33.8,33.5,30.19,ENE,67,0.0,-999.0,99,-99.99,,,0.05,Acu-Link.com,2014-01-11 03:15:00,
2014-01-10 22:30:00,33.8,33.5,30.20,East,90,0.0,-999.0,99,-99.99,,,0.05,Acu-Link.com,2014-01-11 03:30:00,
2014-01-10 22:45:00,33.8,33.5,30.19,NE,45,0.0,-999.0,99,-99.99,,,0.05,Acu-Link.com,2014-01-11 03:45:00,
2014-01-10 23:00:00,33.6,33.3,30.18,NW,315,0.0,-999.0,99,-99.99,,,0.05,Acu-Link.com,2014-01-11 04:00:00,
2014-01-10 23:15:00,33.6,33.3,30.18,NW,315,0.0,-999.0,99,-99.99,,,0.05,Acu-Link.com,2014-01-11 04:15:00,
2014-01-10 23:30:00,33.6,33.3,30.18,ESE,112,0.0,-999.0,99,-99.99,,,0.05,Acu-Link.com,2014-01-11 04:30:00,
2014-01-10 23:45:00,33.6,33.3,30.17,ESE,112,0.0,-999.0,99,-99.99,,,0.05,Acu-Link.com,2014-01-11 04:45:00,